Time;durP1;ratioP1;P1;durP2;ratioP2;P2;SDS_P1;SDS_P2;PMS_P1;PMS_P2;Temp;Humidity;BMP_temperature;BMP_pressure;BME280_temperature;BME280_humidity;BME280_pressure;Samples;Min_cycle;Max_cycle;Signal;HPM_P1;HPM_P2
2020/12/15 00:01:00;;;;;;;;;;;;;;;1.20;77.26;98420.97;1819101;78;25564;-86
2020/12/15 00:03:47;;;;;;;;;;;;;;;1.19;77.26;98419.76;1750574;80;20725;-85
2020/12/15 00:06:34;;;;;;;;;;;;;;;1.17;77.28;98415.09;1804702;77;24905;-85
2020/12/15 00:09:21;;;;;;;;;;;;;;;1.15;77.28;98418.99;1750932;79;21922;-85
2020/12/15 00:12:07;;;;;;;;;;;;;;;1.17;77.30;98421.53;1802009;79;26170;-85
2020/12/15 00:14:54;;;;;;;;;;;;;;;1.12;77.30;98416.53;1789266;79;24574;-85
2020/12/15 00:17:40;;;;;;;;;;;;;;;1.09;77.33;98412.75;1798353;78;20466;-85
2020/12/15 00:20:30;;;;;;;;;;;;;;;1.08;77.32;98412.82;1817454;78;24941;-85
2020/12/15 00:23:17;;;;;;;;;;;;;;;1.05;77.33;98403.44;1762721;80;22091;-84
2020/12/15 00:26:04;;;;;;;;;;;;;;;1.07;77.34;98413.27;1819479;77;26553;-85
2020/12/15 00:28:50;;;;;;;;;;;;;;;1.08;77.35;98413.66;1772989;79;24646;-85
2020/12/15 00:31:37;;;;;;;;;;;;;;;1.08;77.36;98418.81;1807542;78;20302;-85
2020/12/15 00:34:24;;;;;;;;;;;;;;;1.07;77.36;98418.41;1807072;78;25804;-85
2020/12/15 00:37:11;;;;;;;;;;;;;;;1.05;77.38;98420.19;1813911;78;22165;-84
2020/12/15 00:39:57;;;;;;;;;;;;;;;1.03;77.41;98427.14;1810675;78;26207;-85
2020/12/15 00:42:45;;;;;;;;;;;;;;;1.00;77.41;98425.94;1747456;80;24591;-85
2020/12/15 00:45:31;;;;;;;;;;;;;;;0.98;77.42;98430.31;1760723;80;20614;-84
2020/12/15 00:48:18;;;;;;;;;;;;;;;0.96;77.43;98428.22;1805171;78;25186;-84
2020/12/15 00:51:04;;;;;;;;;;;;;;;0.97;77.42;98429.91;1784805;79;22169;-86
2020/12/15 00:53:51;;;;;;;;;;;;;;;0.97;77.43;98429.06;1784435;79;26099;-85
2020/12/15 00:56:37;;;;;;;;;;;;;;;0.96;77.44;98422.22;1776260;79;25549;-85
2020/12/15 00:59:29;;;;;;;;;;;;;;;0.94;77.43;98431.28;1789619;79;20179;-85
2020/12/15 01:02:15;;;;;;;;;;;;;;;0.92;77.45;98431.80;1794667;79;24989;-85
2020/12/15 01:05:02;;;;;;;;;;;;;;;0.91;77.47;98421.08;1792920;79;22097;-85
2020/12/15 01:07:49;;;;;;;;;;;;;;;0.93;77.49;98439.08;1791550;79;26142;-85
2020/12/15 01:10:36;;;;;;;;;;;;;;;0.92;77.48;98447.25;1800487;79;24684;-85
2020/12/15 01:13:22;;;;;;;;;;;;;;;0.92;77.52;98439.52;1781718;79;20276;-85
2020/12/15 01:16:09;;;;;;;;;;;;;;;0.99;77.53;98429.39;1796926;79;24728;-85
2020/12/15 01:19:00;;;;;;;;;;;;;;;1.02;77.53;98434.47;1792240;79;22238;-85
2020/12/15 01:21:47;;;;;;;;;;;;;;;1.02;77.55;98431.05;1789506;78;26109;-85
2020/12/15 01:24:35;;;;;;;;;;;;;;;1.04;77.57;98435.69;1821277;78;25564;-85
2020/12/15 01:30:17;;;;;;;;;;;;;;;1.04;77.60;98435.24;1724997;82;24965;-85
2020/12/15 01:33:04;;;;;;;;;;;;;;;1.04;77.59;98436.97;1764754;80;22313;-86
2020/12/15 01:35:40;;;;;;;;;;;;;;;1.04;77.60;98431.37;1769449;80;26100;-85
2020/12/15 01:38:29;;;;;;;;;;;;;;;1.08;77.61;98429.56;1773925;80;24592;-85
2020/12/15 01:41:16;;;;;;;;;;;;;;;1.09;77.64;98428.69;1764590;80;20272;-85
2020/12/15 01:44:03;;;;;;;;;;;;;;;1.09;77.65;98415.80;1770421;80;24916;-85
2020/12/15 01:46:49;;;;;;;;;;;;;;;1.14;77.66;98403.60;1732458;82;21423;-85
2020/12/15 01:49:39;;;;;;;;;;;;;;;1.16;77.69;98400.06;1737381;82;27400;-85
2020/12/15 01:52:26;;;;;;;;;;;;;;;1.22;77.69;98396.45;1732870;81;25540;-85
2020/12/15 01:55:14;;;;;;;;;;;;;;;1.22;77.71;98395.16;1740955;81;20349;-85
2020/12/15 01:58:00;;;;;;;;;;;;;;;1.23;77.72;98387.83;1701301;81;24894;-85
2020/12/15 02:00:48;;;;;;;;;;;;;;;1.23;77.72;98387.38;1745077;80;23060;-85
2020/12/15 02:03:35;;;;;;;;;;;;;;;1.22;77.73;98394.72;1773087;80;26131;-85
2020/12/15 02:06:21;;;;;;;;;;;;;;;1.20;77.74;98391.81;1738565;80;24419;-85
2020/12/15 02:09:08;;;;;;;;;;;;;;;1.19;77.76;98385.81;1780288;79;20259;-85
2020/12/15 02:11:57;;;;;;;;;;;;;;;1.22;77.74;98381.83;1740036;81;24916;-84
2020/12/15 02:14:43;;;;;;;;;;;;;;;1.24;77.73;98381.34;1731558;81;22104;-85
2020/12/15 02:17:32;;;;;;;;;;;;;;;1.23;77.76;98393.83;1740572;80;25893;-85
2020/12/15 02:20:19;;;;;;;;;;;;;;;1.20;77.76;98383.60;1774567;80;25559;-85
2020/12/15 02:23:06;;;;;;;;;;;;;;;1.22;77.75;98389.56;1773586;80;20875;-85
2020/12/15 02:25:52;;;;;;;;;;;;;;;1.23;77.75;98387.38;1771541;80;24946;-85
2020/12/15 02:35:28;;;;;;;;;;;;;;;1.09;77.81;98375.86;1751105;81;24686;-85
2020/12/15 02:38:32;;;;;;;;;;;;;;;0.89;77.82;98369.20;1764188;80;20469;-85
2020/12/15 02:41:19;;;;;;;;;;;;;;;0.67;77.80;98356.16;1739143;82;24914;-85
2020/12/15 02:44:05;;;;;;;;;;;;;;;0.75;77.76;98355.48;1742940;82;22313;-84
2020/12/15 02:46:52;;;;;;;;;;;;;;;0.76;77.73;98363.62;1738522;82;26119;-84
2020/12/15 02:49:39;;;;;;;;;;;;;;;0.76;77.72;98356.70;1731048;81;25460;-85
2020/12/15 02:52:26;;;;;;;;;;;;;;;0.59;77.74;98356.86;1753192;80;20312;-85
2020/12/15 02:55:13;;;;;;;;;;;;;;;0.37;77.72;98345.94;1737327;82;24691;-85
2020/12/15 02:57:59;;;;;;;;;;;;;;;0.37;77.69;98360.09;1754772;80;22180;-84
2020/12/15 03:00:45;;;;;;;;;;;;;;;0.39;77.66;98357.45;1741408;80;27118;-84
2020/12/15 03:03:35;;;;;;;;;;;;;;;0.34;77.65;98356.75;1738679;80;24572;-84
2020/12/15 03:06:22;;;;;;;;;;;;;;;0.38;77.64;98354.52;1730950;81;20302;-84
2020/12/15 03:09:11;;;;;;;;;;;;;;;0.40;77.63;98358.70;1763625;80;24966;-84
2020/12/15 03:11:58;;;;;;;;;;;;;;;0.39;77.65;98360.03;1768337;80;21910;-85
2020/12/15 03:14:47;;;;;;;;;;;;;;;0.43;77.65;98347.48;1735029;82;27053;-84
2020/12/15 03:17:34;;;;;;;;;;;;;;;0.45;77.66;98351.28;1753252;80;26390;-84
2020/12/15 03:20:21;;;;;;;;;;;;;;;0.44;77.71;98347.86;1754243;81;20173;-84
2020/12/15 03:23:08;;;;;;;;;;;;;;;0.50;77.72;98348.96;1741572;81;25165;-85
2020/12/15 03:25:54;;;;;;;;;;;;;;;0.53;77.73;98350.61;1753973;81;22202;-84
2020/12/15 03:28:41;;;;;;;;;;;;;;;0.36;77.75;98349.84;1777527;80;26118;-85
2020/12/15 03:31:27;;;;;;;;;;;;;;;0.24;77.76;98347.63;1762884;80;24585;-85
2020/12/15 03:34:14;;;;;;;;;;;;;;;0.19;77.75;98349.06;1736360;81;20282;-85
2020/12/15 03:37:03;;;;;;;;;;;;;;;0.27;77.74;98353.52;1728920;82;25761;-85
2020/12/15 03:39:49;;;;;;;;;;;;;;;0.30;77.73;98350.88;1776159;80;22289;-85
2020/12/15 03:42:38;;;;;;;;;;;;;;;0.35;77.74;98354.59;1731037;80;26862;-84
2020/12/15 03:45:25;;;;;;;;;;;;;;;0.37;77.75;98356.23;1777513;80;25576;-85
2020/12/15 03:48:15;;;;;;;;;;;;;;;0.28;77.79;98351.34;1737053;82;20514;-85
2020/12/15 03:51:02;;;;;;;;;;;;;;;0.18;77.79;98358.10;1772345;80;25726;-85
2020/12/15 03:53:49;;;;;;;;;;;;;;;0.16;77.78;98353.47;1772595;81;22148;-85
2020/12/15 03:56:36;;;;;;;;;;;;;;;0.19;77.77;98359.80;1773267;80;26331;-85
2020/12/15 03:59:23;;;;;;;;;;;;;;;0.30;77.77;98363.73;1720854;82;24057;-85
2020/12/15 04:02:10;;;;;;;;;;;;;;;0.21;77.78;98365.75;1747983;82;20278;-85
2020/12/15 04:04:56;;;;;;;;;;;;;;;-0.10;77.82;98376.06;1766242;80;24977;-85
2020/12/15 04:07:42;;;;;;;;;;;;;;;-0.38;77.79;98378.55;1763496;80;23046;-85
2020/12/15 04:10:18;;;;;;;;;;;;;;;-0.47;77.72;98378.80;1725045;82;26300;-84
2020/12/15 04:13:06;;;;;;;;;;;;;;;-0.57;77.68;98373.07;1766308;80;24592;-85
2020/12/15 04:15:53;;;;;;;;;;;;;;;-0.67;77.63;98376.77;1750962;80;20723;-85
2020/12/15 04:18:44;;;;;;;;;;;;;;;-0.73;77.59;98374.36;1775746;79;25890;-85
2020/12/15 04:21:31;;;;;;;;;;;;;;;-0.73;77.57;98376.92;1735449;82;22361;-85
2020/12/15 04:24:18;;;;;;;;;;;;;;;-0.61;77.55;98368.06;1775019;80;25865;-85
2020/12/15 04:27:04;;;;;;;;;;;;;;;-0.46;77.55;98368.49;1726666;81;25278;-85
2020/12/15 04:29:50;;;;;;;;;;;;;;;-0.40;77.58;98369.20;1770200;80;20546;-85
2020/12/15 04:32:37;;;;;;;;;;;;;;;-0.40;77.61;98368.77;1765446;80;24960;-85
2020/12/15 04:35:24;;;;;;;;;;;;;;;-0.37;77.64;98366.10;1735501;82;22163;-86
2020/12/15 04:38:11;;;;;;;;;;;;;;;-0.30;77.64;98361.64;1739540;82;26206;-85
2020/12/15 04:40:58;;;;;;;;;;;;;;;-0.26;77.69;98370.95;1739504;82;25318;-86
2020/12/15 04:43:46;;;;;;;;;;;;;;;-0.10;77.70;98376.06;1739837;82;20438;-85
2020/12/15 04:46:32;;;;;;;;;;;;;;;0.05;77.73;98384.66;1738971;82;24915;-85
2020/12/15 04:49:18;;;;;;;;;;;;;;;0.15;77.76;98386.07;1746356;82;22173;-85
2020/12/15 04:52:05;;;;;;;;;;;;;;;0.19;77.78;98387.66;1760470;80;26189;-85
2020/12/15 04:54:52;;;;;;;;;;;;;;;0.31;77.80;98389.03;1771256;80;24182;-84
2020/12/15 04:57:38;;;;;;;;;;;;;;;0.21;77.83;98384.61;1757549;80;20286;-85
2020/12/15 05:00:14;;;;;;;;;;;;;;;0.18;77.82;98377.41;1762545;80;24147;-85
2020/12/15 05:03:00;;;;;;;;;;;;;;;0.14;77.82;98386.11;1731778;82;22102;-84
2020/12/15 05:05:47;;;;;;;;;;;;;;;0.22;77.82;98382.41;1769967;80;26288;-84
2020/12/15 05:08:34;;;;;;;;;;;;;;;0.35;77.77;98383.74;1739365;80;24398;-85
2020/12/15 05:11:20;;;;;;;;;;;;;;;0.48;77.76;98387.24;1732144;82;20286;-85
2020/12/15 05:14:09;;;;;;;;;;;;;;;0.49;77.79;98382.50;1777031;80;24897;-85
2020/12/15 05:16:55;;;;;;;;;;;;;;;0.49;77.76;98388.49;1768028;80;22169;-85
2020/12/15 05:19:42;;;;;;;;;;;;;;;0.52;77.77;98393.53;1765300;80;27070;-85
2020/12/15 05:22:29;;;;;;;;;;;;;;;0.32;77.78;98390.28;1736440;81;25330;-85
2020/12/15 05:25:16;;;;;;;;;;;;;;;0.27;77.73;98391.30;1762859;80;20490;-85
2020/12/15 05:28:03;;;;;;;;;;;;;;;0.16;77.70;98391.63;1703682;82;25360;-85
2020/12/15 05:30:49;;;;;;;;;;;;;;;0.19;77.66;98403.53;1728662;82;22201;-85
2020/12/15 05:33:36;;;;;;;;;;;;;;;0.17;77.62;98402.28;1754133;81;26264;-85
2020/12/15 05:36:24;;;;;;;;;;;;;;;0.02;77.60;98402.73;1769107;80;24711;-85
2020/12/15 05:39:13;;;;;;;;;;;;;;;-0.26;77.59;98392.36;1760638;80;20391;-85
2020/12/15 05:41:59;;;;;;;;;;;;;;;-0.46;77.52;98389.05;1748782;81;24864;-85
2020/12/15 05:44:46;;;;;;;;;;;;;;;-0.57;77.46;98387.64;1761975;81;22242;-85
2020/12/15 05:47:32;;;;;;;;;;;;;;;-0.60;77.41;98385.17;1727208;82;26101;-84
2020/12/15 05:50:19;;;;;;;;;;;;;;;-0.45;77.35;98393.76;1745952;81;24718;-84
2020/12/15 05:53:06;;;;;;;;;;;;;;;-0.29;77.35;98386.47;1747238;81;20258;-84
2020/12/15 05:55:53;;;;;;;;;;;;;;;-0.37;77.35;98387.11;1769872;81;24915;-85
2020/12/15 05:58:40;;;;;;;;;;;;;;;-0.45;77.37;98380.47;1752341;80;22350;-85
2020/12/15 06:01:26;;;;;;;;;;;;;;;-0.50;77.37;98382.75;1749587;81;26360;-85
2020/12/15 06:04:15;;;;;;;;;;;;;;;-0.57;77.35;98384.64;1766019;80;24759;-85
2020/12/15 06:07:01;;;;;;;;;;;;;;;-0.71;77.36;98377.70;1775358;80;20473;-84
2020/12/15 06:09:48;;;;;;;;;;;;;;;-0.79;77.33;98370.66;1765835;80;25023;-84
2020/12/15 06:12:35;;;;;;;;;;;;;;;-0.84;77.30;98373.78;1712680;83;22927;-84
2020/12/15 06:15:22;;;;;;;;;;;;;;;-0.82;77.28;98375.89;1764881;81;26194;-84
2020/12/15 06:18:09;;;;;;;;;;;;;;;-0.76;77.28;98378.27;1735477;82;24808;-84
2020/12/15 06:20:55;;;;;;;;;;;;;;;-0.65;77.27;98372.41;1763045;80;20294;-85
2020/12/15 06:23:44;;;;;;;;;;;;;;;-0.52;77.29;98376.80;1748772;81;25634;-84
2020/12/15 06:26:30;;;;;;;;;;;;;;;-0.50;77.34;98378.46;1752200;81;22197;-84
2020/12/15 06:29:17;;;;;;;;;;;;;;;-0.59;77.37;98376.55;1765719;81;26146;-84
2020/12/15 06:32:04;;;;;;;;;;;;;;;-0.71;77.38;98375.14;1766145;80;25481;-84
2020/12/15 06:34:50;;;;;;;;;;;;;;;-0.62;77.37;98374.92;1750265;80;20256;-85
2020/12/15 06:37:37;;;;;;;;;;;;;;;-0.65;77.37;98372.41;1779934;80;24970;-85
2020/12/15 06:40:23;;;;;;;;;;;;;;;-0.70;77.37;98373.42;1709114;81;21650;-85
2020/12/15 06:43:12;;;;;;;;;;;;;;;-0.73;77.36;98374.80;1751664;80;26549;-85
2020/12/15 06:46:01;;;;;;;;;;;;;;;-0.61;77.34;98377.91;1739242;81;24277;-85
2020/12/15 06:48:48;;;;;;;;;;;;;;;-0.50;77.33;98375.05;1764763;81;20292;-85
2020/12/15 06:51:38;;;;;;;;;;;;;;;-0.58;77.37;98373.95;1742064;81;24880;-84
2020/12/15 06:54:24;;;;;;;;;;;;;;;-0.68;77.37;98373.80;1748954;81;23223;-84
2020/12/15 06:57:11;;;;;;;;;;;;;;;-0.82;77.36;98377.17;1754598;81;26199;-84
2020/12/15 06:59:58;;;;;;;;;;;;;;;-0.90;77.33;98373.50;1738217;81;24763;-84
2020/12/15 07:02:45;;;;;;;;;;;;;;;-0.92;77.32;98376.97;1719741;81;20281;-84
2020/12/15 07:05:31;;;;;;;;;;;;;;;-0.78;77.28;98383.06;1735373;81;25054;-84
2020/12/15 07:08:19;;;;;;;;;;;;;;;-0.61;77.27;98392.47;1772863;80;21937;-84
2020/12/15 07:11:06;;;;;;;;;;;;;;;-0.53;77.26;98402.09;1769836;80;26236;-84
2020/12/15 07:13:52;;;;;;;;;;;;;;;-0.44;77.28;98401.41;1773699;80;24795;-83
2020/12/15 07:16:38;;;;;;;;;;;;;;;-0.33;77.28;98405.00;1771338;79;20293;-84
2020/12/15 07:19:25;;;;;;;;;;;;;;;-0.27;77.30;98402.71;1766213;80;25145;-84
2020/12/15 07:22:11;;;;;;;;;;;;;;;-0.37;77.33;98403.81;1746990;81;22157;-84
2020/12/15 07:24:58;;;;;;;;;;;;;;;-0.40;77.33;98404.76;1777116;80;26112;-85
2020/12/15 07:27:45;;;;;;;;;;;;;;;-0.37;77.31;98405.95;1768706;80;25598;-84
2020/12/15 07:30:31;;;;;;;;;;;;;;;-0.31;77.29;98408.80;1781740;80;20440;-85
2020/12/15 07:36:10;;;;;;;;;;;;;;;-0.35;77.30;98407.20;1747677;80;22107;-85
2020/12/15 07:38:56;;;;;;;;;;;;;;;-0.26;77.28;98411.64;1772743;80;26154;-85
2020/12/15 07:41:43;;;;;;;;;;;;;;;-0.13;77.29;98406.58;1776951;80;24573;-85
2020/12/15 07:44:29;;;;;;;;;;;;;;;-0.22;77.30;98410.67;1779329;80;20296;-83
2020/12/15 07:47:16;;;;;;;;;;;;;;;-0.20;77.31;98406.34;1777195;80;24973;-85
2020/12/15 07:50:02;;;;;;;;;;;;;;;-0.18;77.31;98407.16;1772509;80;22136;-85
2020/12/15 07:52:49;;;;;;;;;;;;;;;-0.12;77.31;98405.70;1751451;80;26178;-84
2020/12/15 07:55:36;;;;;;;;;;;;;;;-0.20;77.30;98405.05;1737011;81;24618;-85
2020/12/15 07:58:23;;;;;;;;;;;;;;;-0.29;77.29;98400.61;1742371;81;20349;-84
2020/12/15 08:01:10;;;;;;;;;;;;;;;-0.36;77.28;98401.21;1744199;81;25733;-84
2020/12/15 08:03:57;;;;;;;;;;;;;;;-0.39;77.27;98401.75;1778280;80;22293;-84
2020/12/15 08:06:44;;;;;;;;;;;;;;;-0.30;77.22;98409.20;1766241;80;26899;-86
2020/12/15 08:09:32;;;;;;;;;;;;;;;-0.40;77.22;98404.76;1741788;82;24620;-84
2020/12/15 08:12:19;;;;;;;;;;;;;;;-0.50;77.22;98409.74;1777246;80;20486;-84
2020/12/15 08:18:18;;;;;;;;;;;;;;;-0.60;77.18;98410.39;1768062;81;22166;-85
2020/12/15 08:21:05;;;;;;;;;;;;;;;-0.66;77.14;98413.59;1744228;81;26138;-85
2020/12/15 08:23:57;;;;;;;;;;;;;;;-0.65;77.13;98416.09;1741196;81;24645;-85
2020/12/15 08:26:45;;;;;;;;;;;;;;;-0.76;77.15;98414.71;1781360;79;20447;-84
2020/12/15 08:29:31;;;;;;;;;;;;;;;-0.91;77.11;98411.62;1759298;80;25044;-85
2020/12/15 08:32:18;;;;;;;;;;;;;;;-0.95;77.10;98411.73;1734693;82;22148;-84
2020/12/15 08:35:05;;;;;;;;;;;;;;;-0.94;77.08;98405.72;1728834;81;26911;-84
2020/12/15 08:37:51;;;;;;;;;;;;;;;-0.93;77.06;98404.38;1764894;80;24720;-84
2020/12/15 08:40:38;;;;;;;;;;;;;;;-0.96;77.08;98406.19;1763916;80;20270;-84
2020/12/15 08:43:24;;;;;;;;;;;;;;;-0.99;77.09;98404.99;1772585;79;24885;-84
2020/12/15 08:46:11;;;;;;;;;;;;;;;-1.00;77.12;98405.87;1764819;80;22177;-85
2020/12/15 08:48:45;;;;;;;;;;;;;;;-1.00;77.12;98408.44;1756600;80;27048;-85
2020/12/15 08:51:32;;;;;;;;;;;;;;;-1.01;77.15;98411.88;1752303;80;24576;-84
2020/12/15 08:54:19;;;;;;;;;;;;;;;-1.02;77.17;98409.75;1738484;82;20329;-85
2020/12/15 08:57:09;;;;;;;;;;;;;;;-0.95;77.18;98414.30;1778738;80;24882;-85
2020/12/15 08:59:56;;;;;;;;;;;;;;;-0.90;77.22;98417.60;1765200;80;22134;-84
2020/12/15 09:02:43;;;;;;;;;;;;;;;-0.85;77.26;98411.91;1775015;80;26498;-86
2020/12/15 09:05:31;;;;;;;;;;;;;;;-0.78;77.30;98415.17;1770778;80;24574;-85
2020/12/15 09:08:19;;;;;;;;;;;;;;;-0.69;77.35;98424.77;1748992;80;20319;-85
2020/12/15 09:11:06;;;;;;;;;;;;;;;-0.63;77.40;98419.48;1760294;80;25014;-84
2020/12/15 09:13:54;;;;;;;;;;;;;;;-0.53;77.44;98421.38;1749339;80;22155;-85
2020/12/15 09:16:41;;;;;;;;;;;;;;;-0.30;77.51;98418.20;1765085;80;26139;-84
2020/12/15 09:19:31;;;;;;;;;;;;;;;-0.17;77.59;98419.13;1773208;80;24779;-85
2020/12/15 09:22:19;;;;;;;;;;;;;;;-0.15;77.67;98414.77;1732568;82;20491;-84
2020/12/15 09:25:06;;;;;;;;;;;;;;;-0.14;77.73;98408.75;1730418;82;24242;-85
2020/12/15 09:27:57;;;;;;;;;;;;;;;-0.13;77.78;98407.02;1769891;80;22120;-85
2020/12/15 09:33:39;;;;;;;;;;;;;;;0.05;77.86;98419.38;1766739;80;25567;-85
2020/12/15 09:36:28;;;;;;;;;;;;;;;0.12;77.88;98413.16;1771884;80;20268;-85
2020/12/15 09:39:15;;;;;;;;;;;;;;;0.15;77.93;98422.09;1763018;80;24900;-85
2020/12/15 09:42:03;;;;;;;;;;;;;;;0.19;77.96;98415.96;1744485;81;22956;-85
2020/12/15 09:44:50;;;;;;;;;;;;;;;0.23;77.98;98416.27;1765882;80;26070;-84
2020/12/15 09:47:39;;;;;;;;;;;;;;;0.23;78.01;98414.98;1773241;80;24592;-83
2020/12/15 09:50:27;;;;;;;;;;;;;;;0.26;78.01;98421.34;1768873;81;20268;-84
2020/12/15 09:53:18;;;;;;;;;;;;;;;0.29;78.04;98421.23;1725310;81;24992;-84
2020/12/15 09:56:06;;;;;;;;;;;;;;;0.33;78.06;98415.11;1766818;79;22162;-85
2020/12/15 09:58:56;;;;;;;;;;;;;;;0.38;78.10;98422.72;1764650;80;26332;-83
2020/12/15 10:01:43;;;;;;;;;;;;;;;0.40;78.12;98402.46;1726982;82;24775;-84
2020/12/15 10:04:31;;;;;;;;;;;;;;;0.40;78.15;98405.04;1753040;81;20681;-85
2020/12/15 10:07:20;;;;;;;;;;;;;;;0.44;78.16;98404.97;1746051;81;25499;-84
2020/12/15 10:10:10;;;;;;;;;;;;;;;0.47;78.17;98400.55;1757126;81;22099;-84
2020/12/15 10:13:08;;;;;;;;;;;;;;;0.54;78.19;98393.50;1741146;80;25871;-84
2020/12/15 10:15:58;;;;;;;;;;;;;;;0.61;78.22;98394.97;1751559;81;23423;-84
2020/12/15 10:18:56;;;;;;;;;;;;;;;0.65;78.24;98392.73;1750810;81;20346;-84
2020/12/15 10:21:45;;;;;;;;;;;;;;;0.67;78.26;98389.20;1724246;81;25030;-84
2020/12/15 10:24:35;;;;;;;;;;;;;;;0.73;78.27;98384.30;1753284;81;22100;-84
2020/12/15 10:27:25;;;;;;;;;;;;;;;0.79;78.29;98383.67;1762097;80;26266;-84
2020/12/15 10:30:12;;;;;;;;;;;;;;;0.86;78.30;98381.75;1773499;80;24658;-84
2020/12/15 10:33:03;;;;;;;;;;;;;;;0.92;78.35;98378.13;1736057;80;20545;-84
2020/12/15 10:36:10;;;;;;;;;;;;;;;0.97;78.37;98374.52;1737397;82;20179;-84
2020/12/15 10:39:00;;;;;;;;;;;;;;;1.00;78.38;98370.54;1770267;80;22140;-84
2020/12/15 10:41:55;;;;;;;;;;;;;;;1.05;78.39;98364.78;1763789;80;26187;-84
2020/12/15 10:44:44;;;;;;;;;;;;;;;1.11;78.43;98361.17;1772004;80;24701;-84
2020/12/15 10:47:34;;;;;;;;;;;;;;;1.15;78.44;98363.59;1720354;81;20204;-84
2020/12/15 10:50:21;;;;;;;;;;;;;;;1.21;78.48;98370.27;1704850;82;24937;-85
2020/12/15 10:53:14;;;;;;;;;;;;;;;1.25;78.47;98369.30;1721736;81;21862;-85
2020/12/15 10:56:02;;;;;;;;;;;;;;;1.30;78.50;98371.27;1735365;82;26154;-84
2020/12/15 10:58:51;;;;;;;;;;;;;;;1.34;78.52;98371.55;1735953;82;24627;-84
2020/12/15 11:01:41;;;;;;;;;;;;;;;1.39;78.55;98372.69;1706562;82;20270;-84
2020/12/15 11:04:31;;;;;;;;;;;;;;;1.39;78.56;98370.11;1774789;80;20195;-84
2020/12/15 11:07:21;;;;;;;;;;;;;;;1.42;78.57;98365.67;1782029;80;23226;-84
2020/12/15 11:10:13;;;;;;;;;;;;;;;1.45;78.57;98363.45;1782837;80;26996;-84
2020/12/15 11:13:07;;;;;;;;;;;;;;;1.47;78.59;98364.25;1771951;80;25608;-85
2020/12/15 11:15:57;;;;;;;;;;;;;;;1.49;78.59;98362.00;1765653;80;20214;-85
2020/12/15 11:18:44;;;;;;;;;;;;;;;1.52;78.61;98355.91;1748422;81;25817;-85
2020/12/15 11:21:33;;;;;;;;;;;;;;;1.55;78.61;98359.66;1752076;81;23161;-85
2020/12/15 11:24:22;;;;;;;;;;;;;;;1.58;78.62;98350.06;1777645;80;26282;-85
2020/12/15 11:27:13;;;;;;;;;;;;;;;1.67;78.65;98354.07;1764384;80;24607;-85
2020/12/15 11:30:06;;;;;;;;;;;;;;;1.77;78.67;98360.58;1745901;81;20276;-85
2020/12/15 11:32:54;;;;;;;;;;;;;;;1.85;78.69;98353.87;1750536;80;24301;-85
2020/12/15 11:35:45;;;;;;;;;;;;;;;1.91;78.71;98346.72;1734632;81;22636;-85
2020/12/15 11:38:39;;;;;;;;;;;;;;;1.97;78.73;98341.34;1724113;81;26213;-86
2020/12/15 11:41:26;;;;;;;;;;;;;;;2.01;78.73;98344.22;1765897;80;24722;-86
2020/12/15 11:44:14;;;;;;;;;;;;;;;2.06;78.75;98336.30;1770668;80;20390;-85
2020/12/15 11:47:04;;;;;;;;;;;;;;;2.12;78.76;98335.23;1766643;80;24922;-85
2020/12/15 11:49:53;;;;;;;;;;;;;;;2.18;78.77;98335.01;1757043;81;23070;-85
2020/12/15 11:52:43;;;;;;;;;;;;;;;2.23;78.77;98337.81;1714225;82;26208;-85
2020/12/15 11:55:33;;;;;;;;;;;;;;;2.27;78.78;98332.91;1729109;82;24650;-85
2020/12/15 11:58:20;;;;;;;;;;;;;;;2.34;78.78;98337.39;1759492;80;20264;-86
2020/12/15 12:01:10;;;;;;;;;;;;;;;2.37;78.80;98332.09;1756093;80;24912;-85
2020/12/15 12:03:58;;;;;;;;;;;;;;;2.41;78.78;98325.91;1756098;81;22234;-86
2020/12/15 12:06:48;;;;;;;;;;;;;;;2.47;78.78;98323.09;1736050;82;27726;-85
2020/12/15 12:09:37;;;;;;;;;;;;;;;2.52;78.78;98332.34;1733022;82;24643;-85
2020/12/15 12:12:26;;;;;;;;;;;;;;;2.66;78.78;98329.67;1772164;80;20450;-85
2020/12/15 12:15:13;;;;;;;;;;;;;;;2.70;78.80;98333.81;1728775;82;24902;-86
2020/12/15 12:17:59;;;;;;;;;;;;;;;2.75;78.83;98332.73;1745190;81;22114;-86
2020/12/15 12:20:50;;;;;;;;;;;;;;;2.85;78.83;98330.16;1749899;81;26083;-87
2020/12/15 12:23:39;;;;;;;;;;;;;;;2.95;78.84;98323.70;1751257;81;24646;-86
2020/12/15 12:26:27;;;;;;;;;;;;;;;3.10;78.85;98336.47;1773032;79;20311;-86
2020/12/15 12:29:13;;;;;;;;;;;;;;;3.21;78.85;98341.20;1748744;80;24223;-86
2020/12/15 12:32:01;;;;;;;;;;;;;;;3.32;78.87;98331.23;1767653;80;22005;-86
2020/12/15 12:34:47;;;;;;;;;;;;;;;3.35;78.86;98331.94;1748020;81;26127;-86
2020/12/15 12:37:35;;;;;;;;;;;;;;;3.32;78.88;98332.08;1747615;81;25824;-86
2020/12/15 12:40:22;;;;;;;;;;;;;;;3.32;78.87;98333.83;1729477;82;20261;-86
2020/12/15 12:43:11;;;;;;;;;;;;;;;3.28;78.82;98329.66;1728152;82;24917;-86
2020/12/15 12:45:58;;;;;;;;;;;;;;;3.25;78.79;98333.23;1746798;81;22200;-86
2020/12/15 12:48:47;;;;;;;;;;;;;;;3.23;78.74;98329.02;1725680;82;26380;-86
2020/12/15 12:51:38;;;;;;;;;;;;;;;3.26;78.71;98325.03;1711278;83;23963;-86
2020/12/15 12:54:26;;;;;;;;;;;;;;;3.38;78.67;98325.81;1736165;82;20447;-87
2020/12/15 12:57:13;;;;;;;;;;;;;;;3.56;78.65;98324.16;1716093;82;24744;-88
2020/12/15 12:59:59;;;;;;;;;;;;;;;3.73;78.64;98315.20;1733506;82;22241;-88
2020/12/15 13:02:46;;;;;;;;;;;;;;;3.92;78.65;98312.65;1732123;82;26291;-88
2020/12/15 13:05:33;;;;;;;;;;;;;;;4.11;78.65;98316.07;1751777;81;24623;-88
2020/12/15 13:08:20;;;;;;;;;;;;;;;4.18;78.66;98307.11;1747108;81;20195;-87
2020/12/15 13:11:06;;;;;;;;;;;;;;;4.11;78.71;98305.26;1725306;82;24914;-87
2020/12/15 13:13:53;;;;;;;;;;;;;;;4.00;78.67;98314.42;1746373;80;22157;-87
2020/12/15 13:16:40;;;;;;;;;;;;;;;3.94;78.63;98312.11;1731402;82;26147;-87
2020/12/15 13:19:27;;;;;;;;;;;;;;;4.02;78.57;98311.32;1725357;82;24618;-87
2020/12/15 13:22:14;;;;;;;;;;;;;;;4.12;78.53;98318.59;1715641;82;20267;-87
2020/12/15 13:25:11;;;;;;;;;;;;;;;4.21;78.51;98311.69;1732291;82;24988;-87
2020/12/15 13:27:53;;;;;;;;;;;;;;;4.33;78.48;98318.51;1730525;82;22139;-88
2020/12/15 13:30:41;;;;;;;;;;;;;;;4.38;78.44;98314.79;1729970;82;26213;-87
2020/12/15 13:33:29;;;;;;;;;;;;;;;4.46;78.41;98326.95;1737288;82;25670;-87
2020/12/15 13:36:16;;;;;;;;;;;;;;;4.48;78.42;98326.40;1733036;80;20407;-87
2020/12/15 13:39:03;;;;;;;;;;;;;;;4.56;78.35;98324.30;1741263;82;24906;-87
2020/12/15 13:41:52;;;;;;;;;;;;;;;4.63;78.31;98329.58;1745411;80;22139;-88
2020/12/15 13:44:37;;;;;;;;;;;;;;;4.67;78.29;98322.94;1745573;82;27044;-87
2020/12/15 13:47:24;;;;;;;;;;;;;;;4.74;78.24;98319.16;1742445;82;24603;-88
2020/12/15 13:50:11;;;;;;;;;;;;;;;4.74;78.21;98326.93;1743364;82;20510;-88
2020/12/15 13:52:58;;;;;;;;;;;;;;;4.73;78.16;98329.98;1739622;82;24886;-87
2020/12/15 13:55:45;;;;;;;;;;;;;;;4.75;78.11;98329.88;1708088;82;21831;-87
2020/12/15 13:58:32;;;;;;;;;;;;;;;4.83;78.04;98324.72;1743798;82;26121;-88
2020/12/15 14:01:21;;;;;;;;;;;;;;;4.83;78.00;98326.48;1743704;80;24707;-88
2020/12/15 14:04:07;;;;;;;;;;;;;;;4.80;77.96;98321.45;1739395;82;20474;-87
2020/12/15 14:06:55;;;;;;;;;;;;;;;4.83;77.88;98318.25;1738484;82;24896;-86
2020/12/15 14:09:41;;;;;;;;;;;;;;;4.76;77.86;98316.02;1739069;81;22164;-88
2020/12/15 14:12:28;;;;;;;;;;;;;;;4.37;77.86;98314.86;1734467;80;27039;-88
2020/12/15 14:15:15;;;;;;;;;;;;;;;4.09;77.77;98320.50;1765265;80;24596;-88
2020/12/15 14:18:03;;;;;;;;;;;;;;;3.95;77.69;98322.40;1716074;81;20293;-90
2020/12/15 14:20:50;;;;;;;;;;;;;;;3.88;77.59;98332.63;1744581;81;25134;-89
2020/12/15 14:23:37;;;;;;;;;;;;;;;3.76;77.53;98327.55;1722150;81;22034;-88
2020/12/15 14:26:24;;;;;;;;;;;;;;;3.55;77.45;98331.52;1714436;81;26093;-87
2020/12/15 14:29:12;;;;;;;;;;;;;;;3.43;77.40;98331.63;1730274;81;24471;-88
2020/12/15 14:31:59;;;;;;;;;;;;;;;3.47;77.33;98333.62;1768716;80;20268;-87
2020/12/15 14:34:48;;;;;;;;;;;;;;;3.65;77.27;98342.73;1755128;81;24834;-87
2020/12/15 14:37:34;;;;;;;;;;;;;;;3.82;77.22;98332.09;1711782;83;22148;-88
2020/12/15 14:40:23;;;;;;;;;;;;;;;3.96;77.21;98334.89;1703212;82;25975;-86
2020/12/15 14:43:12;;;;;;;;;;;;;;;4.06;77.21;98332.27;1747997;81;24800;-87
2020/12/15 14:46:00;;;;;;;;;;;;;;;4.07;77.21;98330.07;1743827;80;20464;-86
2020/12/15 14:48:47;;;;;;;;;;;;;;;4.03;77.22;98334.56;1743608;81;25735;-87
2020/12/15 14:51:35;;;;;;;;;;;;;;;4.05;77.21;98335.31;1746416;82;22143;-87
2020/12/15 14:54:21;;;;;;;;;;;;;;;4.10;77.19;98329.92;1712480;81;25874;-87
2020/12/15 14:57:08;;;;;;;;;;;;;;;4.11;77.17;98338.08;1737026;81;24706;-87